sensor_id;sensor_type;location;lat;lon;timestamp;pressure;altitude;pressure_sealevel;temperature;humidity
55675;BME280;41562;44.330;23.802;2022-07-26T00:01:13;99789.72;;;25.38;64.77
55675;BME280;41562;44.330;23.802;2022-07-26T00:03:49;99793.66;;;25.40;63.89
55675;BME280;41562;44.330;23.802;2022-07-26T00:06:21;99789.91;;;25.59;62.94
55675;BME280;41562;44.330;23.802;2022-07-26T00:08:49;99782.88;;;25.65;63.35
55675;BME280;41562;44.330;23.802;2022-07-26T00:11:22;99781.34;;;25.71;62.95
55675;BME280;41562;44.330;23.802;2022-07-26T00:13:50;99782.22;;;25.86;62.11
55675;BME280;41562;44.330;23.802;2022-07-26T00:16:18;99781.50;;;26.03;61.48
55675;BME280;41562;44.330;23.802;2022-07-26T00:18:46;99776.75;;;25.89;61.64
55675;BME280;41562;44.330;23.802;2022-07-26T00:21:16;99779.28;;;25.54;62.88
55675;BME280;41562;44.330;23.802;2022-07-26T00:23:49;99779.81;;;25.77;62.26
55675;BME280;41562;44.330;23.802;2022-07-26T00:26:17;99783.75;;;25.83;62.09
55675;BME280;41562;44.330;23.802;2022-07-26T00:28:44;99775.91;;;25.78;62.32
55675;BME280;41562;44.330;23.802;2022-07-26T00:31:12;99786.97;;;26.07;61.07
55675;BME280;41562;44.330;23.802;2022-07-26T00:33:40;99782.25;;;25.28;63.38
55675;BME280;41562;44.330;23.802;2022-07-26T00:36:08;99779.13;;;25.33;63.67
55675;BME280;41562;44.330;23.802;2022-07-26T00:38:36;99783.41;;;25.27;64.02
55675;BME280;41562;44.330;23.802;2022-07-26T00:41:04;99776.81;;;25.38;63.52
55675;BME280;41562;44.330;23.802;2022-07-26T00:43:35;99780.13;;;25.10;64.09
55675;BME280;41562;44.330;23.802;2022-07-26T00:46:05;99778.38;;;24.88;64.93
55675;BME280;41562;44.330;23.802;2022-07-26T00:48:32;99779.81;;;24.75;64.93
55675;BME280;41562;44.330;23.802;2022-07-26T00:51:00;99784.94;;;24.76;65.19
55675;BME280;41562;44.330;23.802;2022-07-26T00:53:27;99784.06;;;25.09;64.84
55675;BME280;41562;44.330;23.802;2022-07-26T00:55:58;99778.19;;;25.11;64.45
55675;BME280;41562;44.330;23.802;2022-07-26T00:58:26;99780.25;;;25.24;63.79
55675;BME280;41562;44.330;23.802;2022-07-26T01:00:54;99784.72;;;24.96;65.03
55675;BME280;41562;44.330;23.802;2022-07-26T01:03:21;99784.94;;;25.20;63.63
55675;BME280;41562;44.330;23.802;2022-07-26T01:05:55;99785.63;;;25.10;64.02
55675;BME280;41562;44.330;23.802;2022-07-26T01:08:24;99784.25;;;25.34;63.33
55675;BME280;41562;44.330;23.802;2022-07-26T01:10:52;99783.03;;;25.32;63.17
55675;BME280;41562;44.330;23.802;2022-07-26T01:13:21;99777.50;;;25.24;63.55
55675;BME280;41562;44.330;23.802;2022-07-26T01:15:49;99783.81;;;25.29;62.94
55675;BME280;41562;44.330;23.802;2022-07-26T01:18:17;99769.84;;;24.93;63.53
55675;BME280;41562;44.330;23.802;2022-07-26T01:20:45;99769.03;;;24.89;64.13
55675;BME280;41562;44.330;23.802;2022-07-26T01:23:15;99765.00;;;24.79;63.86
55675;BME280;41562;44.330;23.802;2022-07-26T01:25:45;99767.34;;;25.21;62.86
55675;BME280;41562;44.330;23.802;2022-07-26T01:28:16;99764.38;;;24.93;63.38
55675;BME280;41562;44.330;23.802;2022-07-26T01:30:47;99762.88;;;24.99;62.91
55675;BME280;41562;44.330;23.802;2022-07-26T01:33:15;99759.75;;;24.97;63.01
55675;BME280;41562;44.330;23.802;2022-07-26T01:35:43;99764.03;;;24.98;62.95
55675;BME280;41562;44.330;23.802;2022-07-26T01:38:10;99769.09;;;24.96;63.18
55675;BME280;41562;44.330;23.802;2022-07-26T01:40:38;99763.03;;;25.20;62.27
55675;BME280;41562;44.330;23.802;2022-07-26T01:43:05;99764.34;;;25.44;61.58
55675;BME280;41562;44.330;23.802;2022-07-26T01:45:33;99760.72;;;25.30;61.89
55675;BME280;41562;44.330;23.802;2022-07-26T01:48:01;99758.78;;;25.30;61.56
55675;BME280;41562;44.330;23.802;2022-07-26T01:50:31;99765.13;;;25.45;61.11
55675;BME280;41562;44.330;23.802;2022-07-26T01:52:59;99763.94;;;25.42;61.25
55675;BME280;41562;44.330;23.802;2022-07-26T01:55:26;99766.63;;;25.32;60.85
55675;BME280;41562;44.330;23.802;2022-07-26T01:57:57;99770.19;;;25.43;60.96
55675;BME280;41562;44.330;23.802;2022-07-26T02:00:25;99760.31;;;24.80;61.88
55675;BME280;41562;44.330;23.802;2022-07-26T02:02:55;99760.09;;;24.96;61.92
55675;BME280;41562;44.330;23.802;2022-07-26T02:05:23;99762.13;;;25.02;61.90
55675;BME280;41562;44.330;23.802;2022-07-26T02:07:50;99771.44;;;24.94;62.12
55675;BME280;41562;44.330;23.802;2022-07-26T02:10:18;99764.97;;;25.16;61.37
55675;BME280;41562;44.330;23.802;2022-07-26T02:12:48;99767.94;;;24.97;61.96
55675;BME280;41562;44.330;23.802;2022-07-26T02:15:21;99771.19;;;25.13;61.60
55675;BME280;41562;44.330;23.802;2022-07-26T02:17:48;99772.41;;;25.23;61.34
55675;BME280;41562;44.330;23.802;2022-07-26T02:20:16;99774.63;;;25.03;61.54
55675;BME280;41562;44.330;23.802;2022-07-26T02:22:44;99773.06;;;25.02;62.26
55675;BME280;41562;44.330;23.802;2022-07-26T02:25:12;99774.72;;;25.17;61.48
55675;BME280;41562;44.330;23.802;2022-07-26T02:27:39;99776.28;;;25.18;61.33
55675;BME280;41562;44.330;23.802;2022-07-26T02:30:07;99780.28;;;25.28;61.11
55675;BME280;41562;44.330;23.802;2022-07-26T02:32:36;99790.41;;;25.24;61.65
55675;BME280;41562;44.330;23.802;2022-07-26T02:35:04;99778.59;;;25.09;61.85
55675;BME280;41562;44.330;23.802;2022-07-26T02:37:32;99781.16;;;24.92;61.56
55675;BME280;41562;44.330;23.802;2022-07-26T02:40:10;99778.50;;;24.99;61.65
55675;BME280;41562;44.330;23.802;2022-07-26T02:42:45;99788.88;;;24.82;61.63
55675;BME280;41562;44.330;23.802;2022-07-26T02:45:13;99787.31;;;24.81;61.63
55675;BME280;41562;44.330;23.802;2022-07-26T02:47:45;99777.56;;;24.84;61.66
55675;BME280;41562;44.330;23.802;2022-07-26T02:50:16;99778.94;;;24.64;62.15
55675;BME280;41562;44.330;23.802;2022-07-26T02:52:44;99782.22;;;24.80;61.72
55675;BME280;41562;44.330;23.802;2022-07-26T02:55:13;99780.53;;;24.68;61.75
55675;BME280;41562;44.330;23.802;2022-07-26T02:57:40;99771.09;;;24.59;61.79
55675;BME280;41562;44.330;23.802;2022-07-26T03:00:15;99768.88;;;24.71;61.95
55675;BME280;41562;44.330;23.802;2022-07-26T03:02:43;99776.22;;;24.64;62.11
55675;BME280;41562;44.330;23.802;2022-07-26T03:05:11;99769.31;;;24.77;61.61
55675;BME280;41562;44.330;23.802;2022-07-26T03:07:38;99788.19;;;24.89;61.66
55675;BME280;41562;44.330;23.802;2022-07-26T03:10:06;99781.84;;;24.81;61.32
55675;BME280;41562;44.330;23.802;2022-07-26T03:12:34;99786.81;;;24.72;61.37
55675;BME280;41562;44.330;23.802;2022-07-26T03:15:02;99782.72;;;24.89;61.18
55675;BME280;41562;44.330;23.802;2022-07-26T03:17:29;99782.06;;;24.62;62.00
55675;BME280;41562;44.330;23.802;2022-07-26T03:19:58;99782.38;;;24.94;60.94
55675;BME280;41562;44.330;23.802;2022-07-26T03:22:26;99780.44;;;24.98;60.94
55675;BME280;41562;44.330;23.802;2022-07-26T03:24:54;99789.31;;;24.84;61.28
55675;BME280;41562;44.330;23.802;2022-07-26T03:27:21;99783.31;;;24.72;61.72
55675;BME280;41562;44.330;23.802;2022-07-26T03:29:49;99788.31;;;24.63;62.02
55675;BME280;41562;44.330;23.802;2022-07-26T03:32:16;99782.28;;;24.87;61.50
55675;BME280;41562;44.330;23.802;2022-07-26T03:34:44;99778.72;;;24.83;61.49
55675;BME280;41562;44.330;23.802;2022-07-26T03:37:11;99782.94;;;24.73;61.46
55675;BME280;41562;44.330;23.802;2022-07-26T03:39:58;99781.13;;;24.48;62.87
55675;BME280;41562;44.330;23.802;2022-07-26T03:42:26;99778.09;;;24.56;62.47
55675;BME280;41562;44.330;23.802;2022-07-26T03:44:53;99777.91;;;24.38;63.13
55675;BME280;41562;44.330;23.802;2022-07-26T03:47:22;99785.44;;;24.49;62.68
55675;BME280;41562;44.330;23.802;2022-07-26T03:49:50;99782.34;;;24.54;62.56
55675;BME280;41562;44.330;23.802;2022-07-26T03:52:18;99781.13;;;24.48;62.99
55675;BME280;41562;44.330;23.802;2022-07-26T03:54:46;99776.03;;;24.46;63.15
55675;BME280;41562;44.330;23.802;2022-07-26T03:57:15;99780.19;;;24.33;63.49
55675;BME280;41562;44.330;23.802;2022-07-26T03:59:43;99775.19;;;24.38;63.53
55675;BME280;41562;44.330;23.802;2022-07-26T04:02:11;99776.25;;;24.30;63.63
55675;BME280;41562;44.330;23.802;2022-07-26T04:04:39;99780.06;;;24.22;63.80
55675;BME280;41562;44.330;23.802;2022-07-26T04:07:09;99768.97;;;24.08;64.66
55675;BME280;41562;44.330;23.802;2022-07-26T04:09:39;99772.78;;;24.03;65.35
55675;BME280;41562;44.330;23.802;2022-07-26T04:12:09;99768.91;;;24.04;65.93
55675;BME280;41562;44.330;23.802;2022-07-26T04:14:37;99774.50;;;24.15;65.76
55675;BME280;41562;44.330;23.802;2022-07-26T04:17:10;99776.78;;;24.43;64.40
55675;BME280;41562;44.330;23.802;2022-07-26T04:19:38;99774.72;;;24.33;64.65
55675;BME280;41562;44.330;23.802;2022-07-26T04:22:06;99773.00;;;24.55;64.40
55675;BME280;41562;44.330;23.802;2022-07-26T04:24:34;99774.97;;;24.58;64.22
55675;BME280;41562;44.330;23.802;2022-07-26T04:27:04;99770.59;;;24.50;64.09
55675;BME280;41562;44.330;23.802;2022-07-26T04:29:35;99776.50;;;24.55;64.64
55675;BME280;41562;44.330;23.802;2022-07-26T04:32:06;99766.44;;;24.63;64.59
55675;BME280;41562;44.330;23.802;2022-07-26T04:34:33;99779.47;;;24.76;63.54
55675;BME280;41562;44.330;23.802;2022-07-26T04:37:00;99766.22;;;24.85;63.55
55675;BME280;41562;44.330;23.802;2022-07-26T04:39:28;99775.06;;;24.65;64.47
55675;BME280;41562;44.330;23.802;2022-07-26T04:41:59;99771.09;;;24.59;64.46
55675;BME280;41562;44.330;23.802;2022-07-26T04:44:33;99771.97;;;24.70;64.66
55675;BME280;41562;44.330;23.802;2022-07-26T04:47:04;99774.28;;;24.64;64.85
55675;BME280;41562;44.330;23.802;2022-07-26T04:49:35;99773.38;;;24.53;65.67
55675;BME280;41562;44.330;23.802;2022-07-26T04:52:03;99768.59;;;24.43;66.04
55675;BME280;41562;44.330;23.802;2022-07-26T04:54:34;99771.81;;;24.52;65.56
55675;BME280;41562;44.330;23.802;2022-07-26T04:57:04;99774.16;;;24.54;66.10
55675;BME280;41562;44.330;23.802;2022-07-26T04:59:36;99773.91;;;24.66;66.12
55675;BME280;41562;44.330;23.802;2022-07-26T05:02:06;99771.19;;;24.73;66.58
55675;BME280;41562;44.330;23.802;2022-07-26T05:04:38;99766.56;;;24.77;65.52
55675;BME280;41562;44.330;23.802;2022-07-26T05:07:07;99774.97;;;24.98;64.86
55675;BME280;41562;44.330;23.802;2022-07-26T05:09:36;99775.09;;;25.12;64.52
55675;BME280;41562;44.330;23.802;2022-07-26T05:12:08;99769.56;;;25.05;64.93
55675;BME280;41562;44.330;23.802;2022-07-26T05:14:52;99768.75;;;25.01;64.61
55675;BME280;41562;44.330;23.802;2022-07-26T05:17:40;99774.66;;;25.10;64.47
55675;BME280;41562;44.330;23.802;2022-07-26T05:20:12;99772.44;;;25.27;64.00
55675;BME280;41562;44.330;23.802;2022-07-26T05:22:57;99771.66;;;25.26;64.44
55675;BME280;41562;44.330;23.802;2022-07-26T05:25:35;99774.81;;;25.28;64.08
55675;BME280;41562;44.330;23.802;2022-07-26T05:28:15;99778.69;;;25.23;64.29
55675;BME280;41562;44.330;23.802;2022-07-26T05:30:45;99778.38;;;25.36;63.94
55675;BME280;41562;44.330;23.802;2022-07-26T05:33:22;99765.94;;;25.49;64.21
55675;BME280;41562;44.330;23.802;2022-07-26T05:35:59;99768.00;;;25.59;63.26
55675;BME280;41562;44.330;23.802;2022-07-26T05:38:33;99770.66;;;25.55;63.32
55675;BME280;41562;44.330;23.802;2022-07-26T05:41:02;99762.13;;;25.60;63.82
55675;BME280;41562;44.330;23.802;2022-07-26T05:43:39;99759.31;;;25.53;63.25
55675;BME280;41562;44.330;23.802;2022-07-26T05:46:11;99765.66;;;25.65;63.38
55675;BME280;41562;44.330;23.802;2022-07-26T05:48:49;99764.00;;;25.53;63.13
55675;BME280;41562;44.330;23.802;2022-07-26T05:51:20;99768.81;;;25.74;63.08
55675;BME280;41562;44.330;23.802;2022-07-26T05:53:51;99766.53;;;25.79;62.90
55675;BME280;41562;44.330;23.802;2022-07-26T05:56:24;99767.72;;;25.89;62.76
55675;BME280;41562;44.330;23.802;2022-07-26T05:58:52;99760.34;;;26.07;62.05
55675;BME280;41562;44.330;23.802;2022-07-26T06:01:20;99769.72;;;25.99;61.94
55675;BME280;41562;44.330;23.802;2022-07-26T06:03:52;99755.66;;;26.08;62.38
55675;BME280;41562;44.330;23.802;2022-07-26T06:06:23;99765.97;;;26.39;61.05
55675;BME280;41562;44.330;23.802;2022-07-26T06:08:51;99762.09;;;26.54;60.95
55675;BME280;41562;44.330;23.802;2022-07-26T06:11:20;99762.88;;;26.87;58.94
55675;BME280;41562;44.330;23.802;2022-07-26T06:13:48;99754.28;;;26.95;59.34
55675;BME280;41562;44.330;23.802;2022-07-26T06:16:30;99756.22;;;27.09;58.44
55675;BME280;41562;44.330;23.802;2022-07-26T06:19:04;99755.81;;;27.14;58.15
55675;BME280;41562;44.330;23.802;2022-07-26T06:21:34;99755.41;;;27.40;58.10
55675;BME280;41562;44.330;23.802;2022-07-26T06:24:04;99754.22;;;27.41;57.87
55675;BME280;41562;44.330;23.802;2022-07-26T06:26:39;99751.47;;;27.52;56.96
55675;BME280;41562;44.330;23.802;2022-07-26T06:29:07;99742.78;;;27.64;57.37
55675;BME280;41562;44.330;23.802;2022-07-26T06:31:41;99746.28;;;27.79;56.80
55675;BME280;41562;44.330;23.802;2022-07-26T06:34:12;99743.53;;;27.79;55.81
55675;BME280;41562;44.330;23.802;2022-07-26T06:36:43;99748.97;;;27.93;54.88
55675;BME280;41562;44.330;23.802;2022-07-26T06:39:15;99750.91;;;27.99;54.55
55675;BME280;41562;44.330;23.802;2022-07-26T06:41:46;99749.16;;;28.34;54.27
55675;BME280;41562;44.330;23.802;2022-07-26T06:44:17;99738.84;;;28.49;54.15
55675;BME280;41562;44.330;23.802;2022-07-26T06:46:50;99742.47;;;28.38;54.31
55675;BME280;41562;44.330;23.802;2022-07-26T06:49:17;99744.41;;;28.42;53.83
55675;BME280;41562;44.330;23.802;2022-07-26T06:51:49;99745.00;;;28.67;53.61
55675;BME280;41562;44.330;23.802;2022-07-26T06:54:22;99739.19;;;28.58;53.16
55675;BME280;41562;44.330;23.802;2022-07-26T06:56:52;99732.47;;;28.59;53.75
55675;BME280;41562;44.330;23.802;2022-07-26T06:59:20;99739.38;;;28.88;53.23
55675;BME280;41562;44.330;23.802;2022-07-26T07:01:54;99736.66;;;29.22;52.76
55675;BME280;41562;44.330;23.802;2022-07-26T07:04:36;99733.66;;;29.09;52.04
55675;BME280;41562;44.330;23.802;2022-07-26T07:07:10;99727.19;;;29.27;52.54
55675;BME280;41562;44.330;23.802;2022-07-26T07:09:39;99734.41;;;29.13;51.97
55675;BME280;41562;44.330;23.802;2022-07-26T07:12:09;99728.53;;;29.49;52.10
55675;BME280;41562;44.330;23.802;2022-07-26T07:14:41;99733.06;;;29.66;50.65
55675;BME280;41562;44.330;23.802;2022-07-26T07:17:09;99724.72;;;29.73;50.16
55675;BME280;41562;44.330;23.802;2022-07-26T07:19:47;99727.50;;;30.04;49.72
55675;BME280;41562;44.330;23.802;2022-07-26T07:22:18;99718.72;;;30.39;49.48
55675;BME280;41562;44.330;23.802;2022-07-26T07:24:49;99717.88;;;30.42;48.61
55675;BME280;41562;44.330;23.802;2022-07-26T07:27:17;99723.19;;;30.56;48.32
55675;BME280;41562;44.330;23.802;2022-07-26T07:29:56;99725.50;;;30.85;48.95
55675;BME280;41562;44.330;23.802;2022-07-26T07:32:24;99727.81;;;30.63;49.27
55675;BME280;41562;44.330;23.802;2022-07-26T07:34:52;99722.63;;;30.92;47.51
55675;BME280;41562;44.330;23.802;2022-07-26T07:37:23;99711.81;;;30.77;47.71
55675;BME280;41562;44.330;23.802;2022-07-26T07:39:57;99727.28;;;30.95;47.31
55675;BME280;41562;44.330;23.802;2022-07-26T07:42:31;99720.22;;;31.17;46.79
55675;BME280;41562;44.330;23.802;2022-07-26T07:45:05;99713.47;;;31.18;46.22
55675;BME280;41562;44.330;23.802;2022-07-26T07:47:36;99708.22;;;31.24;46.33
55675;BME280;41562;44.330;23.802;2022-07-26T07:50:08;99714.06;;;31.29;47.01
55675;BME280;41562;44.330;23.802;2022-07-26T07:52:36;99713.34;;;31.25;46.53
55675;BME280;41562;44.330;23.802;2022-07-26T07:55:09;99703.22;;;31.38;45.55
55675;BME280;41562;44.330;23.802;2022-07-26T07:58:00;99714.91;;;31.26;45.30
55675;BME280;41562;44.330;23.802;2022-07-26T08:00:30;99704.31;;;31.64;44.70
55675;BME280;41562;44.330;23.802;2022-07-26T08:03:01;99711.16;;;31.56;45.88
55675;BME280;41562;44.330;23.802;2022-07-26T08:05:32;99707.56;;;31.59;46.02
55675;BME280;41562;44.330;23.802;2022-07-26T08:08:03;99705.84;;;31.85;44.73
55675;BME280;41562;44.330;23.802;2022-07-26T08:10:38;99710.84;;;31.74;44.83
55675;BME280;41562;44.330;23.802;2022-07-26T08:13:22;99706.41;;;31.56;43.99
55675;BME280;41562;44.330;23.802;2022-07-26T08:15:53;99705.34;;;31.90;46.58
55675;BME280;41562;44.330;23.802;2022-07-26T08:18:25;99700.06;;;31.95;44.82
55675;BME280;41562;44.330;23.802;2022-07-26T08:20:56;99694.28;;;32.06;43.83
55675;BME280;41562;44.330;23.802;2022-07-26T08:23:24;99694.16;;;32.13;44.57
55675;BME280;41562;44.330;23.802;2022-07-26T08:25:55;99695.31;;;31.96;44.04
55675;BME280;41562;44.330;23.802;2022-07-26T08:28:34;99694.16;;;32.13;43.22
55675;BME280;41562;44.330;23.802;2022-07-26T08:31:15;99683.66;;;32.24;42.42
55675;BME280;41562;44.330;23.802;2022-07-26T08:33:46;99681.72;;;32.38;42.86
55675;BME280;41562;44.330;23.802;2022-07-26T08:36:17;99681.72;;;32.38;42.55
55675;BME280;41562;44.330;23.802;2022-07-26T08:38:48;99692.72;;;32.57;42.58
55675;BME280;41562;44.330;23.802;2022-07-26T08:41:16;99689.78;;;32.32;41.49
55675;BME280;41562;44.330;23.802;2022-07-26T08:43:46;99687.25;;;32.38;40.37
55675;BME280;41562;44.330;23.802;2022-07-26T08:46:21;99686.41;;;32.24;38.91
55675;BME280;41562;44.330;23.802;2022-07-26T08:48:57;99688.94;;;32.35;39.63
55675;BME280;41562;44.330;23.802;2022-07-26T08:51:29;99683.84;;;32.50;41.03
55675;BME280;41562;44.330;23.802;2022-07-26T08:54:02;99675.59;;;32.62;40.27
55675;BME280;41562;44.330;23.802;2022-07-26T08:56:39;99682.88;;;32.72;40.33
55675;BME280;41562;44.330;23.802;2022-07-26T08:59:15;99677.41;;;32.53;39.53
55675;BME280;41562;44.330;23.802;2022-07-26T09:01:56;99679.13;;;32.63;40.62
55675;BME280;41562;44.330;23.802;2022-07-26T09:04:29;99682.78;;;32.60;38.70
55675;BME280;41562;44.330;23.802;2022-07-26T09:07:10;99675.53;;;32.50;40.00
55675;BME280;41562;44.330;23.802;2022-07-26T09:09:55;99680.84;;;32.89;39.68
55675;BME280;41562;44.330;23.802;2022-07-26T09:12:30;99679.94;;;33.08;39.16
55675;BME280;41562;44.330;23.802;2022-07-26T09:15:04;99678.38;;;33.07;38.53
55675;BME280;41562;44.330;23.802;2022-07-26T09:17:39;99679.63;;;33.06;37.50
55675;BME280;41562;44.330;23.802;2022-07-26T09:20:13;99681.69;;;33.02;37.88
55675;BME280;41562;44.330;23.802;2022-07-26T09:23:01;99682.88;;;33.18;38.62
55675;BME280;41562;44.330;23.802;2022-07-26T09:25:36;99672.28;;;33.29;38.76
55675;BME280;41562;44.330;23.802;2022-07-26T09:28:20;99679.78;;;33.44;37.82
55675;BME280;41562;44.330;23.802;2022-07-26T09:30:55;99674.09;;;33.35;36.46
55675;BME280;41562;44.330;23.802;2022-07-26T09:33:45;99682.78;;;33.21;36.18
55675;BME280;41562;44.330;23.802;2022-07-26T09:36:16;99681.03;;;33.27;36.57
55675;BME280;41562;44.330;23.802;2022-07-26T09:38:50;99680.72;;;33.25;36.11
55675;BME280;41562;44.330;23.802;2022-07-26T09:41:26;99669.78;;;33.47;37.46
55675;BME280;41562;44.330;23.802;2022-07-26T09:43:55;99666.03;;;33.53;37.31
55675;BME280;41562;44.330;23.802;2022-07-26T09:46:27;99657.28;;;33.55;36.50
55675;BME280;41562;44.330;23.802;2022-07-26T09:49:01;99657.94;;;32.72;38.64
55675;BME280;41562;44.330;23.802;2022-07-26T09:51:43;99655.44;;;32.13;37.89
55675;BME280;41562;44.330;23.802;2022-07-26T09:54:33;99646.28;;;32.32;38.78
55675;BME280;41562;44.330;23.802;2022-07-26T09:57:03;99645.56;;;32.61;37.97
55675;BME280;41562;44.330;23.802;2022-07-26T09:59:31;99640.50;;;32.88;38.16
55675;BME280;41562;44.330;23.802;2022-07-26T10:01:59;99650.28;;;32.93;35.25
55675;BME280;41562;44.330;23.802;2022-07-26T10:04:36;99638.19;;;33.16;36.18
55675;BME280;41562;44.330;23.802;2022-07-26T10:07:07;99642.16;;;33.43;36.49
55675;BME280;41562;44.330;23.802;2022-07-26T10:09:51;99637.94;;;33.51;34.77
55675;BME280;41562;44.330;23.802;2022-07-26T10:12:20;99644.56;;;33.29;35.58
55675;BME280;41562;44.330;23.802;2022-07-26T10:14:56;99629.16;;;33.28;35.52
55675;BME280;41562;44.330;23.802;2022-07-26T10:20:09;99631.09;;;33.56;35.23
55675;BME280;41562;44.330;23.802;2022-07-26T10:22:50;99618.59;;;33.77;36.33
55675;BME280;41562;44.330;23.802;2022-07-26T10:27:56;99615.72;;;34.06;33.75
55675;BME280;41562;44.330;23.802;2022-07-26T10:30:25;99623.03;;;34.00;35.41
55675;BME280;41562;44.330;23.802;2022-07-26T10:33:09;99622.88;;;33.52;35.32
55675;BME280;41562;44.330;23.802;2022-07-26T10:35:42;99624.22;;;32.90;35.29
55675;BME280;41562;44.330;23.802;2022-07-26T10:38:30;99608.59;;;33.12;36.62
55675;BME280;41562;44.330;23.802;2022-07-26T10:41:00;99615.75;;;33.39;36.41
55675;BME280;41562;44.330;23.802;2022-07-26T10:43:35;99608.25;;;33.65;35.83
55675;BME280;41562;44.330;23.802;2022-07-26T10:49:01;99605.38;;;33.68;35.60
55675;BME280;41562;44.330;23.802;2022-07-26T10:51:43;99601.47;;;33.53;34.74
55675;BME280;41562;44.330;23.802;2022-07-26T10:54:18;99596.13;;;33.59;34.18
55675;BME280;41562;44.330;23.802;2022-07-26T10:56:57;99603.41;;;33.27;34.47
55675;BME280;41562;44.330;23.802;2022-07-26T10:59:32;99601.03;;;33.67;35.62
55675;BME280;41562;44.330;23.802;2022-07-26T11:02:26;99602.50;;;33.84;34.50
55675;BME280;41562;44.330;23.802;2022-07-26T11:05:04;99593.50;;;33.68;32.65
55675;BME280;41562;44.330;23.802;2022-07-26T11:07:50;99586.06;;;33.77;34.10
55675;BME280;41562;44.330;23.802;2022-07-26T11:10:31;99592.09;;;33.88;32.98
55675;BME280;41562;44.330;23.802;2022-07-26T11:13:24;99584.88;;;33.78;32.56
55675;BME280;41562;44.330;23.802;2022-07-26T11:15:59;99580.06;;;33.66;33.81
55675;BME280;41562;44.330;23.802;2022-07-26T11:18:33;99583.78;;;33.76;34.93
55675;BME280;41562;44.330;23.802;2022-07-26T11:21:17;99582.50;;;33.89;33.78
55675;BME280;41562;44.330;23.802;2022-07-26T11:23:48;99576.84;;;33.42;34.88
55675;BME280;41562;44.330;23.802;2022-07-26T11:26:22;99581.28;;;32.98;34.99
55675;BME280;41562;44.330;23.802;2022-07-26T11:29:06;99570.09;;;32.73;34.62
55675;BME280;41562;44.330;23.802;2022-07-26T11:31:38;99566.44;;;32.76;35.66
55675;BME280;41562;44.330;23.802;2022-07-26T11:34:33;99561.06;;;32.85;35.63
55675;BME280;41562;44.330;23.802;2022-07-26T11:37:04;99557.75;;;32.90;35.07
55675;BME280;41562;44.330;23.802;2022-07-26T11:39:36;99558.56;;;33.03;35.14
55675;BME280;41562;44.330;23.802;2022-07-26T11:42:08;99557.06;;;33.28;34.81
55675;BME280;41562;44.330;23.802;2022-07-26T11:44:50;99546.34;;;33.30;34.88
55675;BME280;41562;44.330;23.802;2022-07-26T11:47:22;99549.47;;;33.57;34.73
55675;BME280;41562;44.330;23.802;2022-07-26T11:50:04;99537.25;;;33.42;33.23
55675;BME280;41562;44.330;23.802;2022-07-26T11:53:00;99533.47;;;33.36;33.44
55675;BME280;41562;44.330;23.802;2022-07-26T11:55:29;99531.13;;;33.34;33.92
55675;BME280;41562;44.330;23.802;2022-07-26T11:58:04;99525.28;;;33.45;34.44
55675;BME280;41562;44.330;23.802;2022-07-26T12:00:32;99526.72;;;33.75;34.47
55675;BME280;41562;44.330;23.802;2022-07-26T12:03:02;99531.78;;;34.02;34.17
55675;BME280;41562;44.330;23.802;2022-07-26T12:05:30;99525.22;;;33.96;32.82
55675;BME280;41562;44.330;23.802;2022-07-26T12:08:00;99516.50;;;33.84;33.57
55675;BME280;41562;44.330;23.802;2022-07-26T12:10:29;99510.94;;;33.84;33.96
55675;BME280;41562;44.330;23.802;2022-07-26T12:13:12;99523.47;;;34.02;32.56
55675;BME280;41562;44.330;23.802;2022-07-26T12:15:48;99520.44;;;34.09;33.04
55675;BME280;41562;44.330;23.802;2022-07-26T12:18:31;99526.38;;;33.85;33.62
55675;BME280;41562;44.330;23.802;2022-07-26T12:21:02;99527.13;;;33.99;33.88
55675;BME280;41562;44.330;23.802;2022-07-26T12:23:47;99521.16;;;33.87;33.54
55675;BME280;41562;44.330;23.802;2022-07-26T12:26:25;99515.94;;;33.89;33.43
55675;BME280;41562;44.330;23.802;2022-07-26T12:28:54;99509.84;;;33.69;33.32
55675;BME280;41562;44.330;23.802;2022-07-26T12:31:24;99517.94;;;34.02;32.60
55675;BME280;41562;44.330;23.802;2022-07-26T12:33:52;99518.16;;;33.95;32.73
55675;BME280;41562;44.330;23.802;2022-07-26T12:36:21;99508.59;;;33.96;33.49
55675;BME280;41562;44.330;23.802;2022-07-26T12:38:56;99503.75;;;33.74;32.26
55675;BME280;41562;44.330;23.802;2022-07-26T12:41:37;99504.41;;;33.78;33.16
55675;BME280;41562;44.330;23.802;2022-07-26T12:44:06;99499.63;;;33.91;33.48
55675;BME280;41562;44.330;23.802;2022-07-26T12:46:35;99494.81;;;34.05;33.58
55675;BME280;41562;44.330;23.802;2022-07-26T12:49:06;99493.78;;;34.11;34.63
55675;BME280;41562;44.330;23.802;2022-07-26T12:51:34;99490.31;;;33.85;32.49
55675;BME280;41562;44.330;23.802;2022-07-26T12:54:02;99483.78;;;33.79;34.25
55675;BME280;41562;44.330;23.802;2022-07-26T12:56:30;99493.44;;;33.62;33.02
55675;BME280;41562;44.330;23.802;2022-07-26T12:58:58;99488.00;;;33.46;33.51
55675;BME280;41562;44.330;23.802;2022-07-26T13:01:27;99486.34;;;33.74;32.32
55675;BME280;41562;44.330;23.802;2022-07-26T13:03:56;99489.88;;;33.62;32.58
55675;BME280;41562;44.330;23.802;2022-07-26T13:06:24;99482.66;;;33.64;32.63
55675;BME280;41562;44.330;23.802;2022-07-26T13:08:51;99474.25;;;33.55;33.04
55675;BME280;41562;44.330;23.802;2022-07-26T13:11:20;99475.81;;;33.56;32.81
55675;BME280;41562;44.330;23.802;2022-07-26T13:13:52;99478.44;;;33.60;32.86
55675;BME280;41562;44.330;23.802;2022-07-26T13:16:20;99473.91;;;33.40;32.49
55675;BME280;41562;44.330;23.802;2022-07-26T13:18:48;99474.34;;;33.39;32.52
55675;BME280;41562;44.330;23.802;2022-07-26T13:21:16;99472.13;;;33.46;32.35
55675;BME280;41562;44.330;23.802;2022-07-26T13:23:46;99467.38;;;33.47;32.87